Time;durP1;ratioP1;P1;durP2;ratioP2;P2;SDS_P1;SDS_P2;PMS_P1;PMS_P2;Temp;Humidity;BMP_temperature;BMP_pressure;BME280_temperature;BME280_humidity;BME280_pressure;Samples;Min_cycle;Max_cycle;Signal;HPM_P1;HPM_P2
2021/05/30 00:00:17;;;;;;;4.05;2.20;;;;;;;11.24;68.39;99322.09;5091960;28;20115;-67
2021/05/30 00:02:44;;;;;;;3.10;1.80;;;;;;;11.10;67.00;99315.53;5090182;28;20043;-65
2021/05/30 00:05:10;;;;;;;5.45;2.40;;;;;;;11.10;66.38;99346.94;5091110;28;20095;-67
2021/05/30 00:07:36;;;;;;;4.28;2.05;;;;;;;10.95;66.52;99300.34;5073749;28;20044;-67
2021/05/30 00:10:04;;;;;;;2.92;1.90;;;;;;;11.09;65.82;99339.13;5091577;28;20051;-66
2021/05/30 00:12:29;;;;;;;5.82;2.15;;;;;;;11.06;66.11;99328.75;5090580;28;20056;-69
2021/05/30 00:14:55;;;;;;;2.85;2.13;;;;;;;11.14;65.51;99343.31;5091300;28;20047;-66
2021/05/30 00:17:21;;;;;;;5.78;2.30;;;;;;;11.23;64.83;99355.28;5090907;28;20043;-66
2021/05/30 00:19:47;;;;;;;3.53;2.15;;;;;;;11.00;65.20;99363.84;5091406;28;20076;-66
2021/05/30 00:22:12;;;;;;;2.72;2.00;;;;;;;10.85;64.92;99339.94;5091248;28;20113;-67
2021/05/30 00:24:38;;;;;;;5.32;2.05;;;;;;;11.05;65.29;99359.31;5089886;28;20036;-65
2021/05/30 00:27:05;;;;;;;4.55;2.13;;;;;;;10.90;65.45;99336.25;5089653;28;20039;-66
2021/05/30 00:29:31;;;;;;;2.80;2.10;;;;;;;11.00;64.67;99356.00;5071692;28;20122;-66
2021/05/30 00:31:56;;;;;;;2.08;1.88;;;;;;;10.98;64.84;99363.03;5090352;28;20135;-66
2021/05/30 00:34:22;;;;;;;4.47;2.05;;;;;;;11.03;65.15;99363.75;5089804;28;20071;-67
2021/05/30 00:36:48;;;;;;;2.97;2.10;;;;;;;10.97;66.41;99361.31;5088801;28;20047;-66
2021/05/30 00:39:14;;;;;;;4.78;2.40;;;;;;;10.96;66.77;99359.59;5087644;28;20044;-66
2021/05/30 00:41:40;;;;;;;7.93;2.30;;;;;;;10.89;67.05;99355.47;5089020;28;20052;-66
2021/05/30 00:44:25;;;;;;;6.97;2.35;;;;;;;10.75;66.69;99360.28;5088269;28;20119;-67
2021/05/30 00:46:53;;;;;;;3.83;2.08;;;;;;;10.71;66.80;99350.81;5088896;28;20058;-67
2021/05/30 00:49:20;;;;;;;2.45;2.22;;;;;;;10.70;66.88;99355.19;5089461;28;20127;-68
2021/05/30 00:51:46;;;;;;;15.27;2.42;;;;;;;10.82;66.75;99356.56;5088861;28;20048;-67
2021/05/30 00:54:12;;;;;;;5.15;2.10;;;;;;;10.71;65.80;99342.97;5089916;28;20117;-66
2021/05/30 00:56:39;;;;;;;3.55;1.90;;;;;;;10.81;65.91;99355.72;5090093;28;20054;-66
2021/05/30 00:59:05;;;;;;;5.28;2.15;;;;;;;10.72;66.13;99360.38;5089532;28;20399;-67
2021/05/30 01:01:31;;;;;;;3.42;2.03;;;;;;;10.59;66.03;99357.28;5089643;28;20054;-65
2021/05/30 01:03:57;;;;;;;6.93;2.17;;;;;;;10.59;65.86;99356.44;5073523;28;20389;-66
2021/05/30 01:06:26;;;;;;;7.57;2.58;;;;;;;10.55;65.85;99368.75;5090312;28;20044;-66
2021/05/30 01:08:52;;;;;;;2.85;1.98;;;;;;;10.55;65.64;99365.28;5090110;28;20040;-67
2021/05/30 01:11:20;;;;;;;5.25;2.40;;;;;;;10.61;64.81;99383.41;5055573;28;20043;-67
2021/05/30 01:13:46;;;;;;;5.05;2.40;;;;;;;10.35;65.32;99353.63;5090647;28;20044;-66
2021/05/30 01:16:15;;;;;;;5.57;2.50;;;;;;;10.50;65.21;99381.97;5089947;28;20131;-66
2021/05/30 01:18:42;;;;;;;5.28;2.30;;;;;;;10.41;65.62;99382.22;5092429;28;20036;-66
2021/05/30 01:21:08;;;;;;;2.60;2.40;;;;;;;10.43;64.79;99375.19;5093038;28;20048;-66
2021/05/30 01:23:34;;;;;;;5.30;2.53;;;;;;;10.53;64.85;99388.00;5095707;28;20542;-65
2021/05/30 01:26:00;;;;;;;3.00;2.15;;;;;;;10.48;64.54;99377.69;5094441;28;20044;-65
2021/05/30 01:28:26;;;;;;;3.58;2.35;;;;;;;10.52;64.36;99388.91;5076725;28;20055;-67
2021/05/30 01:30:51;;;;;;;2.97;2.25;;;;;;;10.49;64.57;99390.69;5093344;28;20678;-66
2021/05/30 01:33:18;;;;;;;4.53;2.33;;;;;;;10.58;64.32;99391.34;5093173;28;20450;-65
2021/05/30 01:35:44;;;;;;;3.38;1.95;;;;;;;10.53;64.20;99406.31;5093336;28;20043;-67
2021/05/30 01:38:10;;;;;;;5.35;2.13;;;;;;;10.30;64.61;99357.28;5093849;28;20123;-66
2021/05/30 01:40:37;;;;;;;1.98;1.88;;;;;;;10.45;64.31;99383.00;5094132;28;20048;-69
2021/05/30 01:43:02;;;;;;;2.50;2.30;;;;;;;10.34;64.36;99364.13;5094093;28;20071;-67
2021/05/30 01:45:31;;;;;;;7.22;2.53;;;;;;;10.38;64.96;99387.50;5091558;28;20088;-66
2021/05/30 01:47:57;;;;;;;8.13;2.40;;;;;;;10.26;64.72;99368.72;5093661;28;20044;-66
2021/05/30 01:50:25;;;;;;;5.18;2.50;;;;;;;10.33;64.74;99384.19;5093331;28;20488;-66
2021/05/30 01:52:52;;;;;;;3.92;2.10;;;;;;;10.49;64.20;99380.25;5090757;28;20507;-65
2021/05/30 01:55:24;;;;;;;4.70;2.20;;;;;;;10.39;63.72;99378.78;5091302;28;20096;-66
2021/05/30 01:57:53;;;;;;;5.22;2.67;;;;;;;10.45;63.73;99393.44;5093172;28;20040;-68
2021/05/30 02:00:19;;;;;;;3.05;2.20;;;;;;;10.35;63.74;99387.59;5092627;28;20089;-68
2021/05/30 02:02:53;;;;;;;2.75;2.28;;;;;;;10.28;64.23;99380.84;5091901;28;20047;-67
2021/05/30 02:05:20;;;;;;;3.58;2.08;;;;;;;10.22;64.35;99386.25;5091714;28;20044;-66
2021/05/30 02:07:48;;;;;;;6.03;2.10;;;;;;;10.08;64.60;99388.34;5092782;28;20050;-67
2021/05/30 02:10:14;;;;;;;4.90;2.20;;;;;;;10.28;64.39;99395.66;5093238;28;20043;-68
2021/05/30 02:12:42;;;;;;;3.10;1.95;;;;;;;10.23;64.17;99393.19;5075074;28;20044;-68
2021/05/30 02:15:08;;;;;;;4.20;1.90;;;;;;;10.15;64.74;99405.56;5093582;28;20154;-69
2021/05/30 02:17:35;;;;;;;3.30;2.00;;;;;;;10.06;64.04;99388.41;5075092;28;20059;-67
2021/05/30 02:20:02;;;;;;;6.50;2.35;;;;;;;10.15;64.32;99405.56;5094040;28;20048;-68
2021/05/30 02:22:31;;;;;;;8.15;2.08;;;;;;;10.26;63.89;99397.47;5094560;28;20050;-65
2021/05/30 02:24:56;;;;;;;4.32;2.22;;;;;;;10.40;63.21;99406.66;5093929;28;20044;-66
2021/05/30 02:27:22;;;;;;;5.20;2.42;;;;;;;10.21;63.66;99421.13;5059557;28;20131;-67
2021/05/30 02:29:48;;;;;;;5.55;2.10;;;;;;;10.07;63.88;99410.16;5093162;28;20412;-66
2021/05/30 02:32:14;;;;;;;6.60;2.30;;;;;;;10.22;63.64;99411.53;5075668;28;20044;-67
2021/05/30 02:34:42;;;;;;;4.78;2.10;;;;;;;10.21;63.63;99418.50;5092202;28;20457;-67
2021/05/30 02:37:12;;;;;;;2.22;2.03;;;;;;;10.25;63.32;99419.28;5093414;28;20051;-67
2021/05/30 02:39:38;;;;;;;5.75;2.42;;;;;;;10.30;63.12;99431.31;5057897;28;20605;-67
2021/05/30 02:42:05;;;;;;;4.53;2.03;;;;;;;10.37;63.40;99411.94;5091917;28;20047;-66
2021/05/30 02:44:31;;;;;;;2.65;1.90;;;;;;;10.35;63.52;99439.88;5090554;28;20092;-66
2021/05/30 02:46:57;;;;;;;1.90;1.80;;;;;;;10.39;62.71;99435.44;5093082;28;20432;-66
2021/05/30 02:49:24;;;;;;;4.05;1.80;;;;;;;10.42;62.98;99435.38;5074541;28;20068;-67
2021/05/30 02:51:51;;;;;;;2.63;2.03;;;;;;;10.39;62.73;99410.13;5093362;28;20044;-67
2021/05/30 02:54:17;;;;;;;2.00;1.85;;;;;;;10.41;62.40;99421.44;5093138;28;20048;-68
2021/05/30 02:56:43;;;;;;;5.25;2.30;;;;;;;10.43;62.51;99427.47;5075593;28;20063;-67
2021/05/30 02:59:09;;;;;;;7.88;2.35;;;;;;;10.32;62.82;99434.75;5092120;28;20077;-65
2021/05/30 03:01:35;;;;;;;5.93;2.33;;;;;;;10.37;63.00;99429.38;5075234;28;20415;-66
2021/05/30 03:04:01;;;;;;;2.60;2.40;;;;;;;10.37;62.82;99448.53;5092161;28;20048;-66
2021/05/30 03:06:27;;;;;;;6.25;2.72;;;;;;;10.42;62.83;99436.22;5091623;28;20087;-67
2021/05/30 03:08:53;;;;;;;2.67;2.15;;;;;;;10.40;62.61;99461.56;5074117;28;20165;-66
2021/05/30 03:11:21;;;;;;;2.42;2.00;;;;;;;10.34;62.18;99459.09;5074709;28;20048;-67
2021/05/30 03:13:51;;;;;;;4.93;2.28;;;;;;;10.18;62.83;99463.00;5074345;28;20431;-67
2021/05/30 03:16:17;;;;;;;3.65;1.95;;;;;;;10.28;62.60;99438.34;5092451;28;20142;-67
2021/05/30 03:18:43;;;;;;;3.40;2.20;;;;;;;10.50;62.34;99455.16;5057760;28;20066;-67
2021/05/30 03:21:09;;;;;;;3.92;1.73;;;;;;;10.34;62.27;99440.78;5093400;28;20040;-67
2021/05/30 03:23:35;;;;;;;4.20;2.00;;;;;;;10.33;62.60;99453.91;5092646;28;20554;-66
2021/05/30 03:26:01;;;;;;;4.88;2.00;;;;;;;10.19;62.90;99460.34;5091178;28;20047;-66
2021/05/30 03:28:27;;;;;;;7.57;1.80;;;;;;;10.29;62.48;99428.75;5091475;28;20169;-67
2021/05/30 03:30:53;;;;;;;1.73;1.63;;;;;;;10.30;62.71;99467.06;5090357;28;20085;-67
2021/05/30 03:33:19;;;;;;;2.53;2.33;;;;;;;10.30;62.15;99461.81;5073697;28;20036;-67
2021/05/30 03:35:45;;;;;;;3.80;2.30;;;;;;;10.36;62.31;99462.50;5089470;28;20518;-68
2021/05/30 03:38:13;;;;;;;3.80;2.28;;;;;;;10.39;62.27;99436.28;5090588;28;20372;-66
2021/05/30 03:40:58;;;;;;;5.18;2.30;;;;;;;10.41;61.48;99450.19;5089082;28;20048;-66
2021/05/30 03:43:24;;;;;;;3.35;2.15;;;;;;;10.83;60.37;99468.16;5090169;28;20043;-68
2021/05/30 03:45:50;;;;;;;2.28;1.90;;;;;;;10.82;60.68;99467.31;5089814;28;20064;-67
2021/05/30 03:48:16;;;;;;;3.15;2.15;;;;;;;10.74;60.63;99460.59;5090056;28;20040;-66
2021/05/30 03:50:41;;;;;;;3.25;2.13;;;;;;;10.54;60.94;99447.25;5089998;28;20066;-66
2021/05/30 03:53:07;;;;;;;3.50;1.73;;;;;;;10.55;61.58;99462.88;5086564;28;20047;-65
2021/05/30 03:55:33;;;;;;;2.83;2.55;;;;;;;10.61;61.00;99461.84;5089320;28;20044;-67
2021/05/30 03:57:59;;;;;;;3.92;2.30;;;;;;;10.83;60.10;99473.41;5087973;28;20036;-67
2021/05/30 04:00:25;;;;;;;2.63;2.40;;;;;;;10.55;60.88;99459.41;5071684;28;20040;-67
2021/05/30 04:02:51;;;;;;;4.50;2.00;;;;;;;10.70;60.71;99472.91;5071891;28;20036;-67
2021/05/30 04:05:17;;;;;;;3.67;1.95;;;;;;;10.75;60.46;99478.84;5091355;28;20114;-66
2021/05/30 04:07:43;;;;;;;6.07;2.03;;;;;;;10.63;60.81;99463.53;5090260;28;20051;-67
2021/05/30 04:10:10;;;;;;;5.70;2.25;;;;;;;10.99;60.00;99479.88;5090379;28;20044;-66
2021/05/30 04:12:40;;;;;;;3.88;2.10;;;;;;;10.96;59.75;99452.94;5089815;28;20504;-65
2021/05/30 04:15:08;;;;;;;3.45;2.15;;;;;;;10.89;60.10;99474.97;5089919;28;20044;-66
2021/05/30 04:17:34;;;;;;;8.45;2.10;;;;;;;10.89;60.18;99462.75;5089336;28;20032;-68
2021/05/30 04:20:00;;;;;;;3.13;2.05;;;;;;;10.85;59.90;99465.50;5088507;28;20405;-69
2021/05/30 04:22:27;;;;;;;9.77;2.70;;;;;;;10.97;60.00;99471.22;5072512;28;20452;-67
2021/05/30 04:24:53;;;;;;;5.47;2.00;;;;;;;10.87;60.19;99453.22;5089466;28;20043;-69
2021/05/30 04:27:19;;;;;;;2.80;2.55;;;;;;;11.07;59.62;99470.03;5092031;28;20036;-68
2021/05/30 04:29:45;;;;;;;2.45;2.10;;;;;;;10.86;60.18;99473.31;5091192;28;20128;-65
2021/05/30 04:32:11;;;;;;;3.08;2.13;;;;;;;11.15;59.48;99475.06;5090460;28;20075;-66
2021/05/30 04:34:37;;;;;;;3.28;1.90;;;;;;;11.52;59.65;99485.25;5089284;28;20492;-67
2021/05/30 04:37:03;;;;;;;5.78;2.38;;;;;;;11.81;57.98;99486.94;5090630;28;20481;-67
2021/05/30 04:39:32;;;;;;;4.65;2.08;;;;;;;11.45;59.02;99495.06;5056631;28;20036;-66
2021/05/30 04:41:59;;;;;;;4.43;1.98;;;;;;;11.16;59.26;99465.47;5089735;28;20093;-65
2021/05/30 04:44:25;;;;;;;1.60;1.52;;;;;;;11.13;59.55;99485.56;5089963;28;20044;-66
2021/05/30 04:46:51;;;;;;;12.25;2.60;;;;;;;10.93;59.59;99479.22;5071856;28;20083;-66
2021/05/30 04:49:17;;;;;;;2.42;2.17;;;;;;;10.70;60.90;99499.06;5072932;28;20071;-69
2021/05/30 04:51:43;;;;;;;7.28;2.42;;;;;;;10.87;59.96;99500.31;5071178;28;20048;-67
2021/05/30 04:54:09;;;;;;;7.18;2.58;;;;;;;11.01;60.41;99491.16;5089254;28;20412;-66
2021/05/30 04:56:35;;;;;;;2.78;2.53;;;;;;;10.78;60.74;99519.75;5090126;28;20040;-67
2021/05/30 04:59:00;;;;;;;4.85;2.35;;;;;;;10.68;60.85;99500.00;5088622;28;20043;-68
2021/05/30 05:01:26;;;;;;;5.70;2.30;;;;;;;10.60;61.67;99504.59;5088159;28;20097;-66
2021/05/30 05:03:52;;;;;;;3.20;2.17;;;;;;;10.73;60.97;99498.97;5053256;28;20044;-66
2021/05/30 05:06:17;;;;;;;3.00;2.50;;;;;;;10.77;60.96;99502.34;5086557;28;20044;-68
2021/05/30 05:08:43;;;;;;;2.80;1.98;;;;;;;10.73;61.32;99505.97;5068725;28;20047;-67
2021/05/30 05:11:09;;;;;;;2.55;2.08;;;;;;;10.80;62.10;99497.03;5085674;28;20040;-67
2021/05/30 05:13:36;;;;;;;5.15;2.25;;;;;;;10.96;61.12;99514.00;5086188;28;20127;-66
2021/05/30 05:16:02;;;;;;;2.03;1.80;;;;;;;10.85;60.23;99508.22;5070938;28;20500;-66
2021/05/30 05:18:32;;;;;;;2.47;2.08;;;;;;;10.89;60.37;99519.47;5087066;28;20048;-67
2021/05/30 05:20:59;;;;;;;2.40;2.10;;;;;;;10.85;60.21;99520.44;5069762;28;20036;-68
2021/05/30 05:23:26;;;;;;;3.15;2.20;;;;;;;10.68;60.67;99520.94;5088613;28;20450;-78
2021/05/30 05:25:56;;;;;;;2.05;1.80;;;;;;;10.61;60.76;99506.31;5070460;28;20132;-70
2021/05/30 05:28:23;;;;;;;2.38;2.03;;;;;;;10.71;61.38;99494.69;5087579;28;20036;-69
2021/05/30 05:30:49;;;;;;;3.20;2.17;;;;;;;10.93;60.50;99521.94;5087694;28;20044;-67
2021/05/30 05:33:15;;;;;;;3.13;2.30;;;;;;;10.92;60.18;99524.59;5087968;28;20073;-67
2021/05/30 05:35:41;;;;;;;2.83;2.15;;;;;;;11.15;59.69;99524.81;5070336;28;20134;-69
2021/05/30 05:38:07;;;;;;;6.97;2.45;;;;;;;10.86;60.64;99525.63;5088415;28;20040;-70
2021/05/30 05:40:32;;;;;;;5.85;2.20;;;;;;;10.75;60.52;99525.09;5087896;28;20055;-66
2021/05/30 05:42:58;;;;;;;2.45;2.25;;;;;;;10.90;60.12;99516.78;5070139;28;20130;-72
2021/05/30 05:45:25;;;;;;;3.78;2.53;;;;;;;11.00;60.26;99514.75;5087770;28;20189;-68
2021/05/30 05:47:51;;;;;;;8.77;2.58;;;;;;;11.01;60.59;99527.81;5088065;28;20123;-68
2021/05/30 05:50:18;;;;;;;6.53;2.30;;;;;;;10.85;61.00;99531.78;5088087;28;20048;-69
2021/05/30 05:52:45;;;;;;;3.78;2.58;;;;;;;10.87;61.20;99539.56;5086819;28;20079;-66
2021/05/30 05:55:11;;;;;;;9.18;2.30;;;;;;;11.18;60.25;99547.41;5068604;28;20051;-67
2021/05/30 05:57:38;;;;;;;3.47;2.80;;;;;;;11.06;59.92;99544.22;5052417;28;20357;-66
2021/05/30 06:00:05;;;;;;;7.65;2.45;;;;;;;11.06;59.75;99564.31;5087182;28;20108;-67
2021/05/30 06:02:36;;;;;;;2.65;2.10;;;;;;;11.16;59.18;99555.31;5085736;28;20096;-68
2021/05/30 06:05:02;;;;;;;3.70;2.17;;;;;;;10.89;60.34;99515.06;5071360;28;20119;-67
2021/05/30 06:07:28;;;;;;;4.35;2.10;;;;;;;10.76;60.08;99537.25;5056072;28;20040;-70
2021/05/30 06:09:54;;;;;;;3.70;2.30;;;;;;;10.78;60.79;99556.38;5089979;28;20044;-68
2021/05/30 06:12:19;;;;;;;2.22;1.80;;;;;;;10.81;60.44;99536.22;5071984;28;20492;-69
2021/05/30 06:14:45;;;;;;;3.35;2.17;;;;;;;10.88;60.85;99567.44;5089376;28;20040;-69
2021/05/30 06:17:12;;;;;;;2.75;2.20;;;;;;;10.90;60.44;99569.13;5071724;28;20085;-70
2021/05/30 06:19:38;;;;;;;4.53;2.53;;;;;;;10.74;61.35;99560.00;5088461;28;20048;-69
2021/05/30 06:22:05;;;;;;;3.72;2.60;;;;;;;10.86;61.48;99566.63;5091731;28;20079;-69
2021/05/30 06:24:32;;;;;;;5.50;2.67;;;;;;;10.86;61.08;99541.34;5056244;28;20472;-72
2021/05/30 06:26:59;;;;;;;4.10;2.33;;;;;;;10.87;60.26;99574.44;5089932;28;20342;-71
2021/05/30 06:29:24;;;;;;;3.83;2.28;;;;;;;10.64;60.63;99530.63;5072810;28;20039;-72
2021/05/30 06:31:51;;;;;;;2.50;2.30;;;;;;;10.92;60.07;99554.25;5087731;28;20094;-70
2021/05/30 06:34:17;;;;;;;8.88;2.30;;;;;;;11.11;59.34;99583.34;5071396;28;20093;-72
2021/05/30 06:36:43;;;;;;;3.35;2.20;;;;;;;11.06;59.71;99585.25;5089675;28;20036;-70
2021/05/30 06:39:10;;;;;;;7.03;2.30;;;;;;;11.00;59.54;99567.09;5071978;28;20048;-71
2021/05/30 06:41:37;;;;;;;4.78;2.08;;;;;;;11.23;59.24;99569.06;5089287;28;20046;-71
2021/05/30 06:44:03;;;;;;;4.97;2.00;;;;;;;11.15;59.71;99585.00;5089452;28;20044;-72
2021/05/30 06:46:29;;;;;;;2.53;2.05;;;;;;;11.27;59.44;99586.41;5072232;28;20127;-72
2021/05/30 06:48:56;;;;;;;1.92;1.83;;;;;;;11.35;59.30;99577.44;5087186;28;20072;-72
2021/05/30 06:51:23;;;;;;;3.70;2.28;;;;;;;11.26;60.02;99590.78;5086192;28;20066;-72
2021/05/30 06:53:50;;;;;;;8.50;2.50;;;;;;;11.43;59.70;99591.16;5089718;28;20092;-73
2021/05/30 06:56:17;;;;;;;6.20;2.20;;;;;;;11.39;59.40;99586.03;5087515;28;20058;-73
2021/05/30 06:58:43;;;;;;;2.70;2.50;;;;;;;11.11;59.69;99573.75;5089483;28;20036;-69
2021/05/30 07:01:09;;;;;;;6.47;2.28;;;;;;;11.11;60.13;99592.06;5088534;28;20118;-71
2021/05/30 07:03:35;;;;;;;8.18;2.67;;;;;;;11.18;59.54;99584.06;5087428;28;20040;-71
2021/05/30 07:06:01;;;;;;;4.43;2.15;;;;;;;11.06;59.91;99580.00;5053838;28;20511;-69
2021/05/30 07:08:27;;;;;;;4.78;2.55;;;;;;;10.83;60.58;99615.53;5071138;28;20047;-68
2021/05/30 07:10:53;;;;;;;6.28;2.60;;;;;;;11.01;60.71;99626.38;5086409;28;20044;-67
2021/05/30 07:13:20;;;;;;;4.65;2.33;;;;;;;11.30;59.89;99629.06;5088730;28;20043;-69
2021/05/30 07:15:46;;;;;;;5.30;2.20;;;;;;;11.28;59.68;99628.25;5088696;28;20051;-67
2021/05/30 07:18:11;;;;;;;7.10;1.92;;;;;;;10.99;60.56;99615.97;5053993;28;20047;-68
2021/05/30 07:20:42;;;;;;;3.97;2.35;;;;;;;11.34;59.58;99621.97;5071462;28;20160;-69
2021/05/30 07:23:09;;;;;;;2.97;2.00;;;;;;;10.89;60.04;99619.75;5088673;28;20403;-68
2021/05/30 07:25:34;;;;;;;4.63;2.03;;;;;;;10.59;61.01;99631.03;5088865;28;20047;-68
2021/05/30 07:28:00;;;;;;;4.07;2.20;;;;;;;10.92;60.11;99637.13;5088583;28;20047;-68
2021/05/30 07:30:26;;;;;;;3.97;2.20;;;;;;;10.64;60.91;99626.53;5088949;28;20424;-69
2021/05/30 07:32:52;;;;;;;6.53;2.40;;;;;;;10.90;60.10;99616.22;5053621;28;20040;-68
2021/05/30 07:35:18;;;;;;;8.65;2.22;;;;;;;10.83;60.36;99633.00;5088347;28;20044;-68
2021/05/30 07:37:43;;;;;;;3.25;2.33;;;;;;;10.82;60.81;99646.97;5090614;28;20062;-70
2021/05/30 07:40:10;;;;;;;4.50;2.60;;;;;;;11.02;60.49;99642.06;5087607;28;20068;-70
2021/05/30 07:42:36;;;;;;;4.68;2.45;;;;;;;11.03;60.42;99628.06;5089309;28;20117;-69
2021/05/30 07:45:02;;;;;;;3.85;2.42;;;;;;;10.97;59.85;99616.91;5088698;28;20082;-68
2021/05/30 07:47:28;;;;;;;8.25;2.47;;;;;;;11.03;60.26;99635.06;5088780;28;20039;-69
2021/05/30 07:49:54;;;;;;;10.90;2.80;;;;;;;10.88;60.72;99643.34;5088455;28;20044;-67
2021/05/30 07:52:20;;;;;;;3.08;2.50;;;;;;;11.08;59.97;99646.25;5086992;28;20128;-70
2021/05/30 07:54:46;;;;;;;2.75;2.03;;;;;;;10.94;60.43;99632.69;5070757;28;20040;-69
2021/05/30 07:57:12;;;;;;;3.08;2.17;;;;;;;10.87;60.55;99628.53;5054542;28;20040;-68
2021/05/30 07:59:37;;;;;;;12.45;3.58;;;;;;;11.29;59.92;99645.69;5054691;28;20036;-68
2021/05/30 08:02:03;;;;;;;2.80;2.55;;;;;;;11.27;58.86;99650.09;5087800;28;20066;-69
2021/05/30 08:04:29;;;;;;;4.80;2.40;;;;;;;11.42;59.48;99651.41;5088131;28;20134;-67
2021/05/30 08:06:55;;;;;;;5.93;2.10;;;;;;;11.71;57.68;99656.66;5088176;28;20138;-68
2021/05/30 08:09:20;;;;;;;3.00;2.28;;;;;;;11.82;57.53;99655.50;5069448;28;20055;-69
2021/05/30 08:11:46;;;;;;;5.10;3.20;;;;;;;11.82;57.45;99671.22;5087273;28;20411;-69
2021/05/30 08:14:12;;;;;;;7.78;2.75;;;;;;;11.42;58.62;99668.00;5089638;28;20054;-68
2021/05/30 08:16:40;;;;;;;4.82;2.40;;;;;;;11.41;58.68;99665.41;5086664;28;20047;-68
2021/05/30 08:19:06;;;;;;;10.52;2.80;;;;;;;11.87;57.98;99651.84;5087636;28;20044;-69
2021/05/30 08:21:32;;;;;;;7.78;2.47;;;;;;;12.02;57.28;99661.00;5088042;28;20040;-67
2021/05/30 08:23:57;;;;;;;3.28;2.13;;;;;;;11.82;57.47;99668.59;5071062;28;20055;-68
2021/05/30 08:26:24;;;;;;;3.17;2.67;;;;;;;11.93;57.83;99680.50;5070680;28;20039;-69
2021/05/30 08:28:50;;;;;;;3.45;2.90;;;;;;;12.15;57.08;99675.44;5069343;28;20044;-67
2021/05/30 08:31:15;;;;;;;6.03;2.88;;;;;;;12.41;56.75;99671.97;5090269;28;20039;-67
2021/05/30 08:33:41;;;;;;;4.97;2.30;;;;;;;12.43;55.59;99661.44;5086873;28;20454;-69
2021/05/30 08:36:07;;;;;;;6.95;2.55;;;;;;;12.33;56.51;99674.00;5086896;28;20508;-69
2021/05/30 08:38:33;;;;;;;4.72;2.47;;;;;;;12.45;55.83;99659.63;5068196;28;20039;-68
2021/05/30 08:41:00;;;;;;;4.82;2.30;;;;;;;12.67;55.59;99671.16;5085466;28;20079;-69
2021/05/30 08:43:27;;;;;;;5.07;2.75;;;;;;;13.19;54.11;99661.47;5069464;28;20551;-67
2021/05/30 08:45:53;;;;;;;5.35;2.50;;;;;;;13.42;53.07;99665.91;5069781;28;20147;-69
2021/05/30 08:48:20;;;;;;;5.65;2.58;;;;;;;13.46;53.17;99652.59;5086378;28;20060;-70
2021/05/30 08:51:02;;;;;;;3.10;2.47;;;;;;;13.93;52.66;99681.47;5087764;28;20138;-67
2021/05/30 08:53:30;;;;;;;6.25;2.97;;;;;;;13.68;52.71;99676.31;5071567;28;20044;-68
2021/05/30 08:55:56;;;;;;;4.60;2.22;;;;;;;13.49;53.14;99670.88;5085327;28;20464;-67
2021/05/30 08:58:22;;;;;;;2.30;1.95;;;;;;;13.75;52.25;99654.13;5069350;28;20050;-69
2021/05/30 09:01:12;;;;;;;4.55;2.25;;;;;;;14.30;50.82;99675.63;5087139;28;20123;-68
2021/05/30 09:04:03;;;;;;;5.82;2.05;;;;;;;14.11;50.94;99693.91;5067848;28;20061;-70
2021/05/30 09:06:29;;;;;;;6.25;2.28;;;;;;;13.66;51.69;99675.50;5086962;28;20052;-68
2021/05/30 09:08:55;;;;;;;5.63;2.50;;;;;;;13.76;51.42;99683.91;5086360;28;20062;-67
2021/05/30 09:11:44;;;;;;;2.40;2.20;;;;;;;14.21;50.49;99668.97;5087117;28;20036;-68
2021/05/30 09:14:17;;;;;;;5.68;2.53;;;;;;;14.32;49.55;99664.13;5034578;28;20429;-68
2021/05/30 09:17:04;;;;;;;4.10;2.00;;;;;;;14.56;49.47;99682.50;5083994;28;20362;-68
2021/05/30 09:19:35;;;;;;;5.78;1.75;;;;;;;14.42;49.39;99651.47;5085953;28;20134;-69
2021/05/30 09:22:17;;;;;;;3.88;1.52;;;;;;;14.17;50.00;99696.31;5086667;28;20050;-69
2021/05/30 09:24:49;;;;;;;9.52;1.60;;;;;;;13.94;50.11;99686.66;5084918;28;20052;-70
2021/05/30 09:27:19;;;;;;;1.70;1.50;;;;;;;13.66;49.02;99725.44;5083961;28;20062;-67
2021/05/30 09:29:45;;;;;;;6.45;1.60;;;;;;;13.66;48.06;99694.75;5085822;28;20066;-69
2021/05/30 09:32:11;;;;;;;1.40;1.33;;;;;;;13.57;48.06;99705.63;5069637;28;20496;-67
2021/05/30 09:34:40;;;;;;;1.92;1.45;;;;;;;13.93;48.25;99686.72;5069860;28;20036;-72
2021/05/30 09:37:08;;;;;;;9.55;1.50;;;;;;;14.22;46.79;99698.75;5070691;28;20089;-67
2021/05/30 09:39:42;;;;;;;5.13;1.50;;;;;;;14.25;47.88;99683.72;5090077;28;20415;-68
2021/05/30 09:42:33;;;;;;;8.57;2.28;;;;;;;14.26;47.24;99695.09;5089531;28;20097;-68
2021/05/30 09:45:06;;;;;;;2.47;1.98;;;;;;;14.37;45.84;99692.03;5072737;28;20048;-67
2021/05/30 09:47:33;;;;;;;4.00;1.63;;;;;;;14.51;45.96;99689.72;5073256;28;20046;-68
2021/05/30 09:50:00;;;;;;;6.68;2.15;;;;;;;14.80;45.02;99673.56;5072306;28;20043;-69
2021/05/30 09:52:44;;;;;;;7.07;1.60;;;;;;;14.42;44.09;99685.69;5056405;28;20054;-68
2021/05/30 09:55:23;;;;;;;8.07;1.75;;;;;;;14.19;44.84;99683.09;5088379;28;20040;-67
2021/05/30 09:58:14;;;;;;;1.55;1.45;;;;;;;14.38;43.59;99693.75;5072468;28;20047;-68
2021/05/30 10:00:42;;;;;;;8.15;1.88;;;;;;;14.71;42.45;99675.72;5089582;28;20055;-67
2021/05/30 10:03:08;;;;;;;5.78;1.55;;;;;;;14.74;42.81;99697.53;5088949;28;20044;-69
2021/05/30 10:05:35;;;;;;;4.45;1.85;;;;;;;14.61;42.20;99685.78;5072268;28;20051;-67
2021/05/30 10:08:01;;;;;;;6.50;1.85;;;;;;;14.78;42.67;99672.78;5089255;28;20602;-68
2021/05/30 10:10:28;;;;;;;12.88;1.88;;;;;;;15.03;42.13;99677.88;5087186;28;20140;-69
2021/05/30 10:12:54;;;;;;;3.90;1.40;;;;;;;15.15;41.34;99676.47;5070880;28;20040;-68
2021/05/30 10:15:20;;;;;;;4.93;1.52;;;;;;;14.80;42.16;99712.22;5038224;28;20044;-67
2021/05/30 10:17:47;;;;;;;8.77;1.42;;;;;;;14.49;43.03;99692.41;5091945;28;20049;-69
2021/05/30 10:20:19;;;;;;;3.80;1.55;;;;;;;14.79;43.36;99673.63;5089155;28;20556;-67
2021/05/30 10:22:53;;;;;;;7.00;1.58;;;;;;;14.89;43.36;99674.97;5091492;28;20075;-69
2021/05/30 10:25:28;;;;;;;9.80;1.73;;;;;;;15.64;42.38;99679.59;5089944;28;20040;-68
2021/05/30 10:28:17;;;;;;;2.78;1.73;;;;;;;15.87;41.14;99671.47;5091584;28;20093;-67
2021/05/30 10:30:48;;;;;;;5.40;1.40;;;;;;;15.16;40.40;99665.03;5088962;28;20562;-68
2021/05/30 10:33:24;;;;;;;3.45;1.50;;;;;;;15.84;40.79;99683.03;5090911;28;20060;-70
2021/05/30 10:35:55;;;;;;;5.75;1.40;;;;;;;15.57;40.21;99687.75;5088555;28;20071;-69
2021/05/30 10:38:41;;;;;;;9.40;2.33;;;;;;;15.35;40.63;99684.34;5090247;28;20075;-67
2021/05/30 10:41:14;;;;;;;2.97;1.23;;;;;;;15.56;39.50;99719.44;5090913;28;20233;-70
2021/05/30 10:43:41;;;;;;;6.07;1.30;;;;;;;15.41;39.23;99705.16;5055759;28;20186;-69
2021/05/30 10:46:08;;;;;;;1.42;1.33;;;;;;;15.21;39.38;99707.81;5072367;28;20076;-70
2021/05/30 10:48:34;;;;;;;3.50;1.52;;;;;;;14.90;39.16;99727.59;5089701;28;20408;-69
2021/05/30 10:53:43;;;;;;;5.80;2.08;;;;;;;15.03;40.29;99679.66;5088717;28;20412;-69
2021/05/30 10:56:22;;;;;;;10.32;1.73;;;;;;;14.99;40.46;99709.69;5053425;28;20044;-68
2021/05/30 10:59:06;;;;;;;3.70;1.33;;;;;;;14.98;41.24;99694.81;5086402;28;20043;-69
2021/05/30 11:01:37;;;;;;;5.40;1.65;;;;;;;15.03;41.11;99698.94;5086459;28;20044;-68
2021/05/30 11:04:25;;;;;;;5.40;1.35;;;;;;;14.99;41.16;99710.53;5087369;28;20048;-70
2021/05/30 11:07:02;;;;;;;5.82;1.83;;;;;;;14.63;40.30;99718.19;5087703;28;20132;-71
2021/05/30 11:09:54;;;;;;;1.52;1.35;;;;;;;14.66;39.74;99731.22;5070436;28;20032;-69
2021/05/30 11:12:22;;;;;;;4.22;1.45;;;;;;;14.64;39.63;99725.16;5086033;28;20055;-72
2021/05/30 11:15:06;;;;;;;7.63;1.40;;;;;;;14.78;40.19;99714.03;5104256;28;20535;-69
2021/05/30 11:17:40;;;;;;;1.42;1.23;;;;;;;14.88;39.62;99700.47;5088579;28;20545;-71
2021/05/30 11:20:08;;;;;;;8.10;2.08;;;;;;;14.93;39.86;99738.00;5053922;28;20058;-68
2021/05/30 11:22:41;;;;;;;12.80;2.42;;;;;;;14.78;39.73;99711.41;5070987;28;20043;-71
2021/05/30 11:25:07;;;;;;;;;;;;;;;14.87;40.35;99711.91;5088210;28;20055;-70
2021/05/30 11:27:55;;;;;;;18.10;4.60;;;;;;;14.91;41.00;99702.09;5071322;28;19996;-71
2021/05/30 11:30:39;;;;;;;6.45;1.48;;;;;;;14.80;40.50;99714.84;5055359;28;20048;-68
2021/05/30 11:33:07;;;;;;;5.43;1.55;;;;;;;15.17;39.72;99669.38;5089529;28;20180;-70
2021/05/30 11:35:34;;;;;;;4.72;1.02;;;;;;;15.18;39.69;99687.75;5088116;28;20408;-73
2021/05/30 11:38:00;;;;;;;6.88;1.45;;;;;;;15.50;39.38;99704.75;5087512;28;20135;-72
2021/05/30 11:40:26;;;;;;;4.55;1.38;;;;;;;15.35;38.77;99712.50;5090014;28;20196;-73